Grande-Vallee, Canada
Current Conditions -  °F | °C
As of 7:00 PM on Saturday 25 Oct 2014 (Local Time) from CYGP Reporting Station
Light Rain Light Rain  
Wind Chill: 34°   Ceiling: 1000
Heat Index: 37°   Visibility: 2mi
Dew Point: 37°   Wind: 5mph
Humidity: 100%   Direction: 250°WSW
Pressure: 29.6"   Gusts: NA
Location:  49.22°N, 65.13°W
Report Text: CYGP 252300Z 25004KT 2SM -RA BR SCT006 OVC010 03/03 A2960 RMK SC4SC4 SLP026
Loading
Personal Weather Stations






























Interactive Weather Map
Tropical Storm Tracking
New forecast layout! Learn more

10-Day Weather Forecast

Advertisements
Track Severe Weather on mobile